sensor_id;sensor_type;location;lat;lon;timestamp;P1;durP1;ratioP1;P2;durP2;ratioP2
8177;SDS011;4130;48.740;9.132;2024-03-23T00:53:46;3.70;;;3.03;;
8177;SDS011;4130;48.740;9.132;2024-03-23T00:56:13;12.40;;;3.23;;
8177;SDS011;4130;48.740;9.132;2024-03-23T00:58:39;11.90;;;3.13;;
8177;SDS011;4130;48.740;9.132;2024-03-23T01:01:06;3.53;;;2.30;;
8177;SDS011;4130;48.740;9.132;2024-03-23T01:03:31;5.47;;;3.03;;
8177;SDS011;4130;48.740;9.132;2024-03-23T01:05:59;4.63;;;2.77;;
8177;SDS011;4130;48.740;9.132;2024-03-23T01:08:24;4.03;;;2.73;;
8177;SDS011;4130;48.740;9.132;2024-03-23T01:10:56;4.27;;;3.47;;
8177;SDS011;4130;48.740;9.132;2024-03-23T01:13:23;3.10;;;2.40;;
8177;SDS011;4130;48.740;9.132;2024-03-23T01:15:50;2.33;;;2.10;;
8177;SDS011;4130;48.740;9.132;2024-03-23T01:18:16;2.30;;;2.10;;
8177;SDS011;4130;48.740;9.132;2024-03-23T01:20:43;2.90;;;2.00;;
8177;SDS011;4130;48.740;9.132;2024-03-23T01:23:09;3.73;;;2.10;;
8177;SDS011;4130;48.740;9.132;2024-03-23T01:25:36;6.77;;;2.30;;
8177;SDS011;4130;48.740;9.132;2024-03-23T01:28:03;3.90;;;2.50;;
8177;SDS011;4130;48.740;9.132;2024-03-23T01:30:31;2.83;;;2.20;;
8177;SDS011;4130;48.740;9.132;2024-03-23T01:32:57;2.33;;;2.10;;
8177;SDS011;4130;48.740;9.132;2024-03-23T01:35:24;3.80;;;2.50;;
8177;SDS011;4130;48.740;9.132;2024-03-23T01:37:49;2.00;;;1.90;;
8177;SDS011;4130;48.740;9.132;2024-03-23T01:40:16;2.30;;;2.10;;
8177;SDS011;4130;48.740;9.132;2024-03-23T01:42:42;2.97;;;2.03;;
8177;SDS011;4130;48.740;9.132;2024-03-23T01:45:10;5.60;;;2.50;;
8177;SDS011;4130;48.740;9.132;2024-03-23T01:47:36;3.03;;;2.00;;
8177;SDS011;4130;48.740;9.132;2024-03-23T01:50:03;4.13;;;1.87;;
8177;SDS011;4130;48.740;9.132;2024-03-23T01:52:29;4.27;;;1.90;;
8177;SDS011;4130;48.740;9.132;2024-03-23T01:54:56;5.03;;;2.33;;
8177;SDS011;4130;48.740;9.132;2024-03-23T01:57:22;2.47;;;2.20;;
8177;SDS011;4130;48.740;9.132;2024-03-23T01:59:49;2.70;;;2.13;;
8177;SDS011;4130;48.740;9.132;2024-03-23T02:02:17;2.30;;;1.83;;
8177;SDS011;4130;48.740;9.132;2024-03-23T02:04:45;2.43;;;2.00;;
8177;SDS011;4130;48.740;9.132;2024-03-23T02:07:11;6.43;;;2.20;;
8177;SDS011;4130;48.740;9.132;2024-03-23T02:09:38;2.97;;;2.17;;
8177;SDS011;4130;48.740;9.132;2024-03-23T02:12:03;2.87;;;2.00;;
8177;SDS011;4130;48.740;9.132;2024-03-23T02:14:31;2.53;;;2.10;;
8177;SDS011;4130;48.740;9.132;2024-03-23T02:16:57;3.03;;;2.00;;
8177;SDS011;4130;48.740;9.132;2024-03-23T02:19:25;2.50;;;2.20;;
8177;SDS011;4130;48.740;9.132;2024-03-23T02:21:51;3.60;;;2.00;;
8177;SDS011;4130;48.740;9.132;2024-03-23T02:24:19;2.97;;;2.23;;
8177;SDS011;4130;48.740;9.132;2024-03-23T02:26:45;3.30;;;2.50;;
8177;SDS011;4130;48.740;9.132;2024-03-23T02:29:13;3.73;;;2.23;;
8177;SDS011;4130;48.740;9.132;2024-03-23T02:31:39;7.03;;;5.27;;
8177;SDS011;4130;48.740;9.132;2024-03-23T02:34:06;5.13;;;2.70;;
8177;SDS011;4130;48.740;9.132;2024-03-23T02:36:31;6.90;;;2.63;;
8177;SDS011;4130;48.740;9.132;2024-03-23T02:38:58;3.20;;;2.23;;
8177;SDS011;4130;48.740;9.132;2024-03-23T02:41:26;4.03;;;2.60;;
8177;SDS011;4130;48.740;9.132;2024-03-23T02:43:52;3.87;;;2.33;;
8177;SDS011;4130;48.740;9.132;2024-03-23T02:46:18;4.13;;;2.20;;
8177;SDS011;4130;48.740;9.132;2024-03-23T02:48:45;5.83;;;2.60;;
8177;SDS011;4130;48.740;9.132;2024-03-23T02:51:14;3.70;;;2.13;;
8177;SDS011;4130;48.740;9.132;2024-03-23T02:53:41;3.63;;;2.30;;
8177;SDS011;4130;48.740;9.132;2024-03-23T02:56:06;3.00;;;2.40;;
8177;SDS011;4130;48.740;9.132;2024-03-23T02:58:35;2.83;;;2.33;;
8177;SDS011;4130;48.740;9.132;2024-03-23T03:01:00;1.63;;;1.53;;
8177;SDS011;4130;48.740;9.132;2024-03-23T03:03:27;3.00;;;2.20;;
8177;SDS011;4130;48.740;9.132;2024-03-23T03:05:54;2.53;;;2.27;;
8177;SDS011;4130;48.740;9.132;2024-03-23T03:08:21;2.73;;;2.10;;
8177;SDS011;4130;48.740;9.132;2024-03-23T03:10:47;3.37;;;2.37;;
8177;SDS011;4130;48.740;9.132;2024-03-23T03:13:14;2.30;;;2.10;;
8177;SDS011;4130;48.740;9.132;2024-03-23T03:15:41;3.73;;;2.10;;
8177;SDS011;4130;48.740;9.132;2024-03-23T03:18:09;2.30;;;2.10;;
8177;SDS011;4130;48.740;9.132;2024-03-23T03:20:36;4.37;;;2.20;;
8177;SDS011;4130;48.740;9.132;2024-03-23T03:23:04;3.83;;;2.33;;
8177;SDS011;4130;48.740;9.132;2024-03-23T03:25:30;2.57;;;2.10;;
8177;SDS011;4130;48.740;9.132;2024-03-23T03:27:57;3.27;;;2.30;;
8177;SDS011;4130;48.740;9.132;2024-03-23T03:30:22;3.43;;;2.20;;
8177;SDS011;4130;48.740;9.132;2024-03-23T03:32:51;4.23;;;2.20;;
8177;SDS011;4130;48.740;9.132;2024-03-23T03:35:18;3.40;;;2.17;;
8177;SDS011;4130;48.740;9.132;2024-03-23T03:37:45;4.70;;;2.30;;
8177;SDS011;4130;48.740;9.132;2024-03-23T03:40:11;5.47;;;2.40;;
8177;SDS011;4130;48.740;9.132;2024-03-23T03:42:39;3.70;;;2.47;;
8177;SDS011;4130;48.740;9.132;2024-03-23T03:45:06;3.03;;;2.23;;
8177;SDS011;4130;48.740;9.132;2024-03-23T03:47:33;6.20;;;2.43;;
8177;SDS011;4130;48.740;9.132;2024-03-23T03:50:00;2.27;;;2.07;;
8177;SDS011;4130;48.740;9.132;2024-03-23T03:52:27;2.33;;;2.13;;
8177;SDS011;4130;48.740;9.132;2024-03-23T03:54:55;4.33;;;2.43;;
8177;SDS011;4130;48.740;9.132;2024-03-23T03:57:28;3.73;;;2.30;;
8177;SDS011;4130;48.740;9.132;2024-03-23T03:59:54;2.90;;;2.40;;
8177;SDS011;4130;48.740;9.132;2024-03-23T04:02:21;2.47;;;2.27;;
8177;SDS011;4130;48.740;9.132;2024-03-23T04:04:46;2.70;;;2.50;;
8177;SDS011;4130;48.740;9.132;2024-03-23T04:07:14;6.50;;;2.40;;
8177;SDS011;4130;48.740;9.132;2024-03-23T04:09:40;3.77;;;2.30;;
8177;SDS011;4130;48.740;9.132;2024-03-23T04:12:07;3.73;;;2.60;;
8177;SDS011;4130;48.740;9.132;2024-03-23T04:14:33;2.30;;;2.10;;
8177;SDS011;4130;48.740;9.132;2024-03-23T04:16:59;4.00;;;2.40;;
8177;SDS011;4130;48.740;9.132;2024-03-23T04:19:25;2.77;;;2.57;;
8177;SDS011;4130;48.740;9.132;2024-03-23T04:21:52;3.47;;;2.60;;
8177;SDS011;4130;48.740;9.132;2024-03-23T04:24:19;2.83;;;2.30;;
8177;SDS011;4130;48.740;9.132;2024-03-23T04:26:47;5.17;;;2.40;;
8177;SDS011;4130;48.740;9.132;2024-03-23T04:29:13;3.73;;;2.30;;
8177;SDS011;4130;48.740;9.132;2024-03-23T04:31:40;3.93;;;2.30;;
8177;SDS011;4130;48.740;9.132;2024-03-23T04:34:05;3.40;;;2.47;;
8177;SDS011;4130;48.740;9.132;2024-03-23T04:36:32;3.53;;;2.40;;
8177;SDS011;4130;48.740;9.132;2024-03-23T04:38:59;3.27;;;2.50;;
8177;SDS011;4130;48.740;9.132;2024-03-23T04:41:28;20.40;;;10.90;;
8177;SDS011;4130;48.740;9.132;2024-03-23T04:43:54;11.33;;;6.53;;
8177;SDS011;4130;48.740;9.132;2024-03-23T04:46:21;6.13;;;3.70;;
8177;SDS011;4130;48.740;9.132;2024-03-23T04:48:47;9.93;;;2.90;;
8177;SDS011;4130;48.740;9.132;2024-03-23T04:51:20;12.70;;;2.57;;
8177;SDS011;4130;48.740;9.132;2024-03-23T04:53:47;7.80;;;2.90;;
8177;SDS011;4130;48.740;9.132;2024-03-23T04:56:14;4.33;;;2.40;;
8177;SDS011;4130;48.740;9.132;2024-03-23T04:58:42;7.80;;;2.87;;
8177;SDS011;4130;48.740;9.132;2024-03-23T05:01:08;5.40;;;3.33;;
8177;SDS011;4130;48.740;9.132;2024-03-23T05:03:36;6.27;;;3.33;;
8177;SDS011;4130;48.740;9.132;2024-03-23T05:06:03;6.03;;;3.40;;
8177;SDS011;4130;48.740;9.132;2024-03-23T05:08:30;4.60;;;3.80;;
8177;SDS011;4130;48.740;9.132;2024-03-23T05:10:57;4.87;;;3.40;;
8177;SDS011;4130;48.740;9.132;2024-03-23T05:13:22;4.97;;;3.77;;
8177;SDS011;4130;48.740;9.132;2024-03-23T05:15:52;6.63;;;4.67;;
8177;SDS011;4130;48.740;9.132;2024-03-23T05:18:18;6.47;;;4.43;;
8177;SDS011;4130;48.740;9.132;2024-03-23T05:20:45;6.50;;;5.53;;
8177;SDS011;4130;48.740;9.132;2024-03-23T05:23:11;8.57;;;6.80;;
8177;SDS011;4130;48.740;9.132;2024-03-23T05:25:38;8.50;;;7.03;;
8177;SDS011;4130;48.740;9.132;2024-03-23T05:28:04;7.77;;;6.97;;
8177;SDS011;4130;48.740;9.132;2024-03-23T05:30:31;9.20;;;8.20;;
8177;SDS011;4130;48.740;9.132;2024-03-23T05:32:58;11.10;;;8.10;;
8177;SDS011;4130;48.740;9.132;2024-03-23T05:35:25;10.27;;;8.90;;
8177;SDS011;4130;48.740;9.132;2024-03-23T05:37:51;15.50;;;8.83;;
8177;SDS011;4130;48.740;9.132;2024-03-23T05:40:18;11.93;;;9.10;;
8177;SDS011;4130;48.740;9.132;2024-03-23T05:42:43;11.20;;;9.03;;
8177;SDS011;4130;48.740;9.132;2024-03-23T05:45:10;11.00;;;8.77;;
8177;SDS011;4130;48.740;9.132;2024-03-23T05:47:36;12.20;;;9.47;;
8177;SDS011;4130;48.740;9.132;2024-03-23T05:50:04;9.80;;;8.80;;
8177;SDS011;4130;48.740;9.132;2024-03-23T05:52:31;12.00;;;9.40;;
8177;SDS011;4130;48.740;9.132;2024-03-23T05:54:58;9.23;;;7.93;;
8177;SDS011;4130;48.740;9.132;2024-03-23T05:57:24;9.80;;;7.60;;
8177;SDS011;4130;48.740;9.132;2024-03-23T05:59:51;8.30;;;7.30;;
8177;SDS011;4130;48.740;9.132;2024-03-23T06:02:16;8.83;;;6.70;;
8177;SDS011;4130;48.740;9.132;2024-03-23T06:04:45;8.30;;;6.80;;
8177;SDS011;4130;48.740;9.132;2024-03-23T06:07:12;8.97;;;6.33;;
8177;SDS011;4130;48.740;9.132;2024-03-23T06:09:39;6.63;;;5.30;;
8177;SDS011;4130;48.740;9.132;2024-03-23T06:12:05;4.90;;;4.13;;
8177;SDS011;4130;48.740;9.132;2024-03-23T06:14:33;4.10;;;3.70;;
8177;SDS011;4130;48.740;9.132;2024-03-23T06:16:59;4.00;;;3.63;;
8177;SDS011;4130;48.740;9.132;2024-03-23T06:19:26;4.60;;;3.00;;
8177;SDS011;4130;48.740;9.132;2024-03-23T06:21:52;2.87;;;2.23;;
8177;SDS011;4130;48.740;9.132;2024-03-23T06:24:21;2.80;;;2.60;;
8177;SDS011;4130;48.740;9.132;2024-03-23T06:26:46;2.07;;;1.83;;
8177;SDS011;4130;48.740;9.132;2024-03-23T06:29:13;1.73;;;1.63;;
8177;SDS011;4130;48.740;9.132;2024-03-23T06:31:39;3.00;;;1.67;;
8177;SDS011;4130;48.740;9.132;2024-03-23T06:34:06;1.80;;;1.70;;
8177;SDS011;4130;48.740;9.132;2024-03-23T06:36:31;1.83;;;1.20;;
8177;SDS011;4130;48.740;9.132;2024-03-23T06:38:58;1.03;;;1.00;;
8177;SDS011;4130;48.740;9.132;2024-03-23T06:41:25;1.13;;;1.13;;
8177;SDS011;4130;48.740;9.132;2024-03-23T06:43:53;1.00;;;1.00;;
8177;SDS011;4130;48.740;9.132;2024-03-23T06:46:18;0.93;;;0.93;;
8177;SDS011;4130;48.740;9.132;2024-03-23T06:48:45;1.10;;;1.00;;
8177;SDS011;4130;48.740;9.132;2024-03-23T06:51:11;1.37;;;0.60;;
8177;SDS011;4130;48.740;9.132;2024-03-23T06:53:38;0.73;;;0.73;;
8177;SDS011;4130;48.740;9.132;2024-03-23T06:56:03;0.60;;;0.60;;
8177;SDS011;4130;48.740;9.132;2024-03-23T06:58:32;0.80;;;0.80;;
8177;SDS011;4130;48.740;9.132;2024-03-23T07:00:58;0.60;;;0.60;;
8177;SDS011;4130;48.740;9.132;2024-03-23T07:03:24;0.73;;;0.70;;
8177;SDS011;4130;48.740;9.132;2024-03-23T07:05:51;0.70;;;0.70;;
8177;SDS011;4130;48.740;9.132;2024-03-23T07:08:17;0.53;;;0.53;;
8177;SDS011;4130;48.740;9.132;2024-03-23T07:10:47;0.93;;;0.60;;
8177;SDS011;4130;48.740;9.132;2024-03-23T07:13:13;0.50;;;0.50;;
8177;SDS011;4130;48.740;9.132;2024-03-23T07:15:41;0.73;;;0.73;;
8177;SDS011;4130;48.740;9.132;2024-03-23T07:18:07;0.63;;;0.63;;
8177;SDS011;4130;48.740;9.132;2024-03-23T07:20:33;3.67;;;0.93;;
8177;SDS011;4130;48.740;9.132;2024-03-23T07:23:00;0.40;;;0.40;;
8177;SDS011;4130;48.740;9.132;2024-03-23T07:25:26;0.57;;;0.57;;
8177;SDS011;4130;48.740;9.132;2024-03-23T07:27:54;0.37;;;0.30;;
8177;SDS011;4130;48.740;9.132;2024-03-23T07:30:20;1.23;;;0.77;;
8177;SDS011;4130;48.740;9.132;2024-03-23T07:32:48;2.03;;;0.80;;
8177;SDS011;4130;48.740;9.132;2024-03-23T07:35:13;0.43;;;0.43;;
8177;SDS011;4130;48.740;9.132;2024-03-23T07:37:41;0.43;;;0.40;;
8177;SDS011;4130;48.740;9.132;2024-03-23T07:40:07;0.40;;;0.40;;
8177;SDS011;4130;48.740;9.132;2024-03-23T07:42:35;0.23;;;0.23;;
8177;SDS011;4130;48.740;9.132;2024-03-23T07:45:00;0.40;;;0.40;;
8177;SDS011;4130;48.740;9.132;2024-03-23T07:47:27;0.47;;;0.40;;
8177;SDS011;4130;48.740;9.132;2024-03-23T07:49:54;0.20;;;0.20;;
8177;SDS011;4130;48.740;9.132;2024-03-23T07:52:23;0.20;;;0.20;;
8177;SDS011;4130;48.740;9.132;2024-03-23T07:54:48;1.40;;;1.30;;
8177;SDS011;4130;48.740;9.132;2024-03-23T07:57:15;0.90;;;0.90;;
8177;SDS011;4130;48.740;9.132;2024-03-23T07:59:41;0.77;;;0.43;;
8177;SDS011;4130;48.740;9.132;2024-03-23T08:02:08;0.40;;;0.40;;
8177;SDS011;4130;48.740;9.132;2024-03-23T08:04:35;0.30;;;0.30;;
8177;SDS011;4130;48.740;9.132;2024-03-23T08:07:04;0.60;;;0.60;;
8177;SDS011;4130;48.740;9.132;2024-03-23T08:09:30;2.17;;;0.43;;
8177;SDS011;4130;48.740;9.132;2024-03-23T08:11:56;0.43;;;0.43;;
8177;SDS011;4130;48.740;9.132;2024-03-23T08:14:22;0.30;;;0.30;;
8177;SDS011;4130;48.740;9.132;2024-03-23T08:16:49;0.30;;;0.30;;
8177;SDS011;4130;48.740;9.132;2024-03-23T08:19:22;0.47;;;0.47;;
8177;SDS011;4130;48.740;9.132;2024-03-23T08:21:48;0.50;;;0.50;;
8177;SDS011;4130;48.740;9.132;2024-03-23T08:24:17;0.57;;;0.57;;
8177;SDS011;4130;48.740;9.132;2024-03-23T08:26:44;0.53;;;0.53;;
8177;SDS011;4130;48.740;9.132;2024-03-23T08:29:10;0.60;;;0.60;;
8177;SDS011;4130;48.740;9.132;2024-03-23T08:31:37;0.70;;;0.70;;
8177;SDS011;4130;48.740;9.132;2024-03-23T08:34:03;0.90;;;0.90;;
8177;SDS011;4130;48.740;9.132;2024-03-23T08:36:29;1.47;;;1.37;;
8177;SDS011;4130;48.740;9.132;2024-03-23T08:38:55;1.60;;;1.10;;
8177;SDS011;4130;48.740;9.132;2024-03-23T08:41:23;1.97;;;1.20;;
8177;SDS011;4130;48.740;9.132;2024-03-23T08:43:49;1.50;;;1.40;;
8177;SDS011;4130;48.740;9.132;2024-03-23T08:46:18;2.13;;;1.17;;
8177;SDS011;4130;48.740;9.132;2024-03-23T08:48:44;3.00;;;1.13;;
8177;SDS011;4130;48.740;9.132;2024-03-23T08:51:14;1.33;;;1.23;;
8177;SDS011;4130;48.740;9.132;2024-03-23T08:53:41;2.10;;;1.20;;
8177;SDS011;4130;48.740;9.132;2024-03-23T08:56:09;1.07;;;1.07;;
8177;SDS011;4130;48.740;9.132;2024-03-23T08:58:37;3.43;;;1.40;;
8177;SDS011;4130;48.740;9.132;2024-03-23T09:01:05;2.37;;;1.20;;
8177;SDS011;4130;48.740;9.132;2024-03-23T09:03:32;1.40;;;1.30;;
8177;SDS011;4130;48.740;9.132;2024-03-23T09:06:00;2.33;;;1.43;;
8177;SDS011;4130;48.740;9.132;2024-03-23T09:08:26;2.83;;;1.23;;
8177;SDS011;4130;48.740;9.132;2024-03-23T09:10:53;2.40;;;1.43;;
8177;SDS011;4130;48.740;9.132;2024-03-23T09:13:19;2.70;;;1.50;;
8177;SDS011;4130;48.740;9.132;2024-03-23T09:15:48;4.40;;;1.67;;
8177;SDS011;4130;48.740;9.132;2024-03-23T09:18:15;4.47;;;1.90;;
8177;SDS011;4130;48.740;9.132;2024-03-23T09:20:42;4.77;;;2.10;;
8177;SDS011;4130;48.740;9.132;2024-03-23T09:23:08;2.87;;;2.03;;
8177;SDS011;4130;48.740;9.132;2024-03-23T09:25:38;6.37;;;2.03;;
8177;SDS011;4130;48.740;9.132;2024-03-23T09:28:04;2.80;;;2.17;;
8177;SDS011;4130;48.740;9.132;2024-03-23T09:30:32;3.93;;;2.40;;
8177;SDS011;4130;48.740;9.132;2024-03-23T09:32:59;5.47;;;2.50;;
8177;SDS011;4130;48.740;9.132;2024-03-23T09:35:27;6.07;;;2.57;;
8177;SDS011;4130;48.740;9.132;2024-03-23T09:37:53;4.30;;;2.40;;
8177;SDS011;4130;48.740;9.132;2024-03-23T09:40:20;4.73;;;2.37;;
8177;SDS011;4130;48.740;9.132;2024-03-23T09:42:57;7.53;;;2.20;;
8177;SDS011;4130;48.740;9.132;2024-03-23T09:45:26;6.73;;;2.30;;
8177;SDS011;4130;48.740;9.132;2024-03-23T09:47:53;6.23;;;2.70;;
8177;SDS011;4130;48.740;9.132;2024-03-23T09:50:22;5.13;;;2.53;;
8177;SDS011;4130;48.740;9.132;2024-03-23T09:52:48;3.97;;;2.40;;
8177;SDS011;4130;48.740;9.132;2024-03-23T09:55:15;4.90;;;2.40;;
8177;SDS011;4130;48.740;9.132;2024-03-23T09:57:41;6.17;;;3.23;;
8177;SDS011;4130;48.740;9.132;2024-03-23T10:00:08;6.10;;;2.73;;
8177;SDS011;4130;48.740;9.132;2024-03-23T10:02:35;6.37;;;2.80;;
8177;SDS011;4130;48.740;9.132;2024-03-23T10:05:01;4.80;;;2.23;;
8177;SDS011;4130;48.740;9.132;2024-03-23T10:07:29;4.80;;;2.30;;
8177;SDS011;4130;48.740;9.132;2024-03-23T10:09:56;4.97;;;2.20;;
8177;SDS011;4130;48.740;9.132;2024-03-23T10:12:22;7.87;;;2.50;;
8177;SDS011;4130;48.740;9.132;2024-03-23T10:14:50;5.50;;;2.80;;
8177;SDS011;4130;48.740;9.132;2024-03-23T10:17:16;4.10;;;2.50;;
8177;SDS011;4130;48.740;9.132;2024-03-23T10:19:44;5.00;;;2.40;;
8177;SDS011;4130;48.740;9.132;2024-03-23T10:22:13;5.30;;;2.53;;
8177;SDS011;4130;48.740;9.132;2024-03-23T10:24:42;5.30;;;2.50;;
8177;SDS011;4130;48.740;9.132;2024-03-23T10:27:07;5.60;;;2.53;;
8177;SDS011;4130;48.740;9.132;2024-03-23T10:29:34;6.40;;;2.60;;
8177;SDS011;4130;48.740;9.132;2024-03-23T10:32:10;11.37;;;3.10;;
8177;SDS011;4130;48.740;9.132;2024-03-23T10:34:38;8.93;;;2.60;;
8177;SDS011;4130;48.740;9.132;2024-03-23T10:37:04;5.10;;;2.43;;
8177;SDS011;4130;48.740;9.132;2024-03-23T10:39:35;7.27;;;2.70;;
8177;SDS011;4130;48.740;9.132;2024-03-23T10:42:04;8.20;;;2.93;;
8177;SDS011;4130;48.740;9.132;2024-03-23T10:44:32;8.27;;;2.73;;
8177;SDS011;4130;48.740;9.132;2024-03-23T10:46:58;7.00;;;2.80;;
8177;SDS011;4130;48.740;9.132;2024-03-23T10:49:26;6.33;;;2.93;;
8177;SDS011;4130;48.740;9.132;2024-03-23T10:51:55;5.97;;;2.40;;
8177;SDS011;4130;48.740;9.132;2024-03-23T10:54:23;8.23;;;2.63;;
8177;SDS011;4130;48.740;9.132;2024-03-23T10:56:50;6.10;;;2.50;;
8177;SDS011;4130;48.740;9.132;2024-03-23T10:59:21;2.73;;;2.33;;
8177;SDS011;4130;48.740;9.132;2024-03-23T11:01:56;1.70;;;1.60;;
8177;SDS011;4130;48.740;9.132;2024-03-23T11:04:30;4.80;;;1.80;;
8177;SDS011;4130;48.740;9.132;2024-03-23T11:06:56;2.87;;;2.00;;
8177;SDS011;4130;48.740;9.132;2024-03-23T11:09:38;3.23;;;2.07;;
8177;SDS011;4130;48.740;9.132;2024-03-23T11:12:17;3.70;;;1.80;;
8177;SDS011;4130;48.740;9.132;2024-03-23T11:14:55;37.40;;;3.60;;
8177;SDS011;4130;48.740;9.132;2024-03-23T11:17:24;35.87;;;2.67;;
8177;SDS011;4130;48.740;9.132;2024-03-23T11:19:55;5.07;;;1.90;;
8177;SDS011;4130;48.740;9.132;2024-03-23T11:22:38;21.17;;;2.63;;
8177;SDS011;4130;48.740;9.132;2024-03-23T11:25:12;6.57;;;1.60;;
8177;SDS011;4130;48.740;9.132;2024-03-23T11:27:39;5.23;;;2.33;;
8177;SDS011;4130;48.740;9.132;2024-03-23T11:30:14;6.23;;;1.90;;
8177;SDS011;4130;48.740;9.132;2024-03-23T11:32:41;6.40;;;2.23;;
8177;SDS011;4130;48.740;9.132;2024-03-23T11:35:08;2.60;;;1.73;;
8177;SDS011;4130;48.740;9.132;2024-03-23T11:37:35;3.47;;;1.90;;
8177;SDS011;4130;48.740;9.132;2024-03-23T11:42:47;5.57;;;1.70;;
8177;SDS011;4130;48.740;9.132;2024-03-23T11:45:22;3.13;;;1.40;;
8177;SDS011;4130;48.740;9.132;2024-03-23T11:47:48;9.63;;;2.03;;
8177;SDS011;4130;48.740;9.132;2024-03-23T11:50:27;6.93;;;1.70;;
8177;SDS011;4130;48.740;9.132;2024-03-23T11:53:05;13.27;;;1.77;;
8177;SDS011;4130;48.740;9.132;2024-03-23T11:55:38;4.90;;;1.33;;
8177;SDS011;4130;48.740;9.132;2024-03-23T11:58:05;2.33;;;1.33;;
8177;SDS011;4130;48.740;9.132;2024-03-23T12:00:34;1.93;;;1.23;;
8177;SDS011;4130;48.740;9.132;2024-03-23T12:03:00;2.40;;;1.20;;
8177;SDS011;4130;48.740;9.132;2024-03-23T12:05:27;2.30;;;1.53;;
8177;SDS011;4130;48.740;9.132;2024-03-23T12:07:54;3.60;;;1.47;;
8177;SDS011;4130;48.740;9.132;2024-03-23T12:10:21;2.87;;;1.10;;
8177;SDS011;4130;48.740;9.132;2024-03-23T12:12:58;3.97;;;1.40;;
8177;SDS011;4130;48.740;9.132;2024-03-23T12:15:26;5.33;;;1.70;;
8177;SDS011;4130;48.740;9.132;2024-03-23T12:18:06;4.57;;;1.50;;
8177;SDS011;4130;48.740;9.132;2024-03-23T12:20:33;1.93;;;1.17;;
8177;SDS011;4130;48.740;9.132;2024-03-23T12:23:09;3.00;;;1.30;;
8177;SDS011;4130;48.740;9.132;2024-03-23T12:25:37;5.90;;;1.57;;
8177;SDS011;4130;48.740;9.132;2024-03-23T12:28:04;2.90;;;1.50;;
8177;SDS011;4130;48.740;9.132;2024-03-23T12:30:35;5.03;;;1.70;;
8177;SDS011;4130;48.740;9.132;2024-03-23T12:33:01;7.13;;;1.53;;
8177;SDS011;4130;48.740;9.132;2024-03-23T12:35:30;5.57;;;2.20;;
8177;SDS011;4130;48.740;9.132;2024-03-23T12:37:56;5.40;;;1.70;;
8177;SDS011;4130;48.740;9.132;2024-03-23T12:40:23;5.27;;;1.30;;
8177;SDS011;4130;48.740;9.132;2024-03-23T12:42:48;3.63;;;1.83;;
8177;SDS011;4130;48.740;9.132;2024-03-23T12:45:15;5.47;;;1.97;;
8177;SDS011;4130;48.740;9.132;2024-03-23T12:47:41;4.70;;;1.80;;
8177;SDS011;4130;48.740;9.132;2024-03-23T12:50:08;6.90;;;1.83;;
8177;SDS011;4130;48.740;9.132;2024-03-23T12:52:36;2.53;;;1.70;;
8177;SDS011;4130;48.740;9.132;2024-03-23T12:55:03;6.40;;;2.43;;
8177;SDS011;4130;48.740;9.132;2024-03-23T12:57:30;6.07;;;1.97;;
8177;SDS011;4130;48.740;9.132;2024-03-23T12:59:57;8.57;;;2.10;;
8177;SDS011;4130;48.740;9.132;2024-03-23T13:02:24;8.37;;;2.27;;
8177;SDS011;4130;48.740;9.132;2024-03-23T13:04:56;5.87;;;2.23;;
8177;SDS011;4130;48.740;9.132;2024-03-23T13:07:23;5.67;;;2.20;;
8177;SDS011;4130;48.740;9.132;2024-03-23T13:09:51;3.93;;;2.00;;
8177;SDS011;4130;48.740;9.132;2024-03-23T13:12:17;7.83;;;1.93;;
8177;SDS011;4130;48.740;9.132;2024-03-23T13:14:45;7.23;;;2.30;;
8177;SDS011;4130;48.740;9.132;2024-03-23T13:17:11;8.50;;;2.33;;
8177;SDS011;4130;48.740;9.132;2024-03-23T13:19:38;7.83;;;2.13;;
8177;SDS011;4130;48.740;9.132;2024-03-23T13:22:04;5.97;;;2.17;;
8177;SDS011;4130;48.740;9.132;2024-03-23T13:24:31;6.63;;;2.23;;
8177;SDS011;4130;48.740;9.132;2024-03-23T13:27:00;5.90;;;1.77;;
8177;SDS011;4130;48.740;9.132;2024-03-23T13:29:27;4.57;;;1.67;;
8177;SDS011;4130;48.740;9.132;2024-03-23T13:31:52;2.43;;;1.37;;
8177;SDS011;4130;48.740;9.132;2024-03-23T13:34:19;3.70;;;1.40;;
8177;SDS011;4130;48.740;9.132;2024-03-23T13:36:45;4.30;;;1.20;;
8177;SDS011;4130;48.740;9.132;2024-03-23T13:39:13;1.50;;;0.90;;
8177;SDS011;4130;48.740;9.132;2024-03-23T13:41:40;4.40;;;1.30;;
8177;SDS011;4130;48.740;9.132;2024-03-23T13:44:09;3.63;;;1.20;;
8177;SDS011;4130;48.740;9.132;2024-03-23T13:46:35;7.23;;;1.50;;
8177;SDS011;4130;48.740;9.132;2024-03-23T13:49:03;2.17;;;1.00;;
8177;SDS011;4130;48.740;9.132;2024-03-23T13:51:28;2.90;;;1.10;;
8177;SDS011;4130;48.740;9.132;2024-03-23T13:53:55;3.57;;;1.50;;
8177;SDS011;4130;48.740;9.132;2024-03-23T13:56:26;3.67;;;1.20;;
8177;SDS011;4130;48.740;9.132;2024-03-23T13:58:53;1.73;;;1.10;;
8177;SDS011;4130;48.740;9.132;2024-03-23T14:01:20;2.23;;;1.00;;
8177;SDS011;4130;48.740;9.132;2024-03-23T14:03:47;3.63;;;1.10;;
8177;SDS011;4130;48.740;9.132;2024-03-23T14:06:14;1.57;;;1.23;;
8177;SDS011;4130;48.740;9.132;2024-03-23T14:08:41;2.97;;;1.40;;
8177;SDS011;4130;48.740;9.132;2024-03-23T14:11:08;4.83;;;1.30;;
8177;SDS011;4130;48.740;9.132;2024-03-23T14:13:35;1.50;;;1.40;;
8177;SDS011;4130;48.740;9.132;2024-03-23T14:16:02;4.73;;;1.10;;
8177;SDS011;4130;48.740;9.132;2024-03-23T14:18:30;3.87;;;1.13;;
8177;SDS011;4130;48.740;9.132;2024-03-23T14:20:56;1.10;;;1.00;;
8177;SDS011;4130;48.740;9.132;2024-03-23T14:23:24;2.87;;;1.27;;
8177;SDS011;4130;48.740;9.132;2024-03-23T14:25:52;2.40;;;1.00;;
8177;SDS011;4130;48.740;9.132;2024-03-23T14:28:22;1.17;;;0.87;;
8177;SDS011;4130;48.740;9.132;2024-03-23T14:30:48;3.90;;;1.10;;
8177;SDS011;4130;48.740;9.132;2024-03-23T14:33:16;1.50;;;0.97;;
8177;SDS011;4130;48.740;9.132;2024-03-23T14:35:48;1.93;;;0.97;;
8177;SDS011;4130;48.740;9.132;2024-03-23T14:38:18;1.53;;;0.80;;
8177;SDS011;4130;48.740;9.132;2024-03-23T14:40:44;1.53;;;1.07;;
8177;SDS011;4130;48.740;9.132;2024-03-23T14:43:11;2.03;;;1.30;;
8177;SDS011;4130;48.740;9.132;2024-03-23T14:45:36;1.90;;;1.23;;
8177;SDS011;4130;48.740;9.132;2024-03-23T14:48:03;2.50;;;1.20;;
8177;SDS011;4130;48.740;9.132;2024-03-23T14:50:30;1.97;;;1.07;;
8177;SDS011;4130;48.740;9.132;2024-03-23T14:52:58;2.43;;;1.00;;
8177;SDS011;4130;48.740;9.132;2024-03-23T14:55:24;0.97;;;0.90;;
8177;SDS011;4130;48.740;9.132;2024-03-23T14:57:50;4.30;;;1.20;;
8177;SDS011;4130;48.740;9.132;2024-03-23T15:00:16;1.47;;;0.90;;
8177;SDS011;4130;48.740;9.132;2024-03-23T15:02:43;2.00;;;1.07;;
8177;SDS011;4130;48.740;9.132;2024-03-23T15:05:10;2.87;;;1.20;;
8177;SDS011;4130;48.740;9.132;2024-03-23T15:07:37;2.77;;;1.10;;
8177;SDS011;4130;48.740;9.132;2024-03-23T15:10:05;2.33;;;1.30;;
8177;SDS011;4130;48.740;9.132;2024-03-23T15:12:33;2.90;;;1.70;;
8177;SDS011;4130;48.740;9.132;2024-03-23T15:14:59;2.60;;;1.30;;
8177;SDS011;4130;48.740;9.132;2024-03-23T15:17:26;2.27;;;1.47;;
8177;SDS011;4130;48.740;9.132;2024-03-23T15:19:51;2.47;;;1.37;;
8177;SDS011;4130;48.740;9.132;2024-03-23T15:22:19;3.03;;;1.20;;
8177;SDS011;4130;48.740;9.132;2024-03-23T15:24:45;2.83;;;1.50;;
8177;SDS011;4130;48.740;9.132;2024-03-23T15:27:13;4.03;;;1.60;;
8177;SDS011;4130;48.740;9.132;2024-03-23T15:29:39;1.80;;;1.23;;
8177;SDS011;4130;48.740;9.132;2024-03-23T15:32:10;4.10;;;1.30;;
8177;SDS011;4130;48.740;9.132;2024-03-23T15:34:35;3.60;;;1.33;;
8177;SDS011;4130;48.740;9.132;2024-03-23T15:37:02;3.73;;;1.50;;
8177;SDS011;4130;48.740;9.132;2024-03-23T15:39:29;2.83;;;1.07;;
8177;SDS011;4130;48.740;9.132;2024-03-23T15:41:56;1.63;;;1.10;;
8177;SDS011;4130;48.740;9.132;2024-03-23T15:44:23;2.23;;;1.20;;
8177;SDS011;4130;48.740;9.132;2024-03-23T15:46:50;2.00;;;1.10;;
8177;SDS011;4130;48.740;9.132;2024-03-23T15:49:16;2.40;;;1.30;;
8177;SDS011;4130;48.740;9.132;2024-03-23T15:51:43;1.23;;;0.90;;
8177;SDS011;4130;48.740;9.132;2024-03-23T15:54:09;2.30;;;1.10;;
8177;SDS011;4130;48.740;9.132;2024-03-23T15:56:36;6.10;;;1.60;;
8177;SDS011;4130;48.740;9.132;2024-03-23T15:59:02;2.23;;;1.37;;
8177;SDS011;4130;48.740;9.132;2024-03-23T16:01:32;2.07;;;1.20;;
8177;SDS011;4130;48.740;9.132;2024-03-23T16:03:59;1.97;;;1.00;;
8177;SDS011;4130;48.740;9.132;2024-03-23T16:06:25;2.90;;;1.40;;
8177;SDS011;4130;48.740;9.132;2024-03-23T16:08:52;1.40;;;0.97;;
8177;SDS011;4130;48.740;9.132;2024-03-23T16:11:18;1.23;;;0.83;;